sensor_id;sensor_type;location;lat;lon;timestamp;temperature;humidity
53978;DHT22;39886;47.984;-1.586;2023-04-30T00:02:14;19.80;69.80
53978;DHT22;39886;47.984;-1.586;2023-04-30T00:04:40;19.70;69.80
53978;DHT22;39886;47.984;-1.586;2023-04-30T00:07:06;19.80;69.90
53978;DHT22;39886;47.984;-1.586;2023-04-30T00:09:31;19.70;69.80
53978;DHT22;39886;47.984;-1.586;2023-04-30T00:11:57;19.70;69.80
53978;DHT22;39886;47.984;-1.586;2023-04-30T00:14:23;19.70;69.80
53978;DHT22;39886;47.984;-1.586;2023-04-30T00:16:48;19.70;69.80
53978;DHT22;39886;47.984;-1.586;2023-04-30T00:19:14;19.70;69.90
53978;DHT22;39886;47.984;-1.586;2023-04-30T00:21:40;19.70;69.90
53978;DHT22;39886;47.984;-1.586;2023-04-30T00:24:06;19.70;69.90
53978;DHT22;39886;47.984;-1.586;2023-04-30T00:26:32;19.70;69.90
53978;DHT22;39886;47.984;-1.586;2023-04-30T00:28:58;19.70;69.90
53978;DHT22;39886;47.984;-1.586;2023-04-30T00:31:23;19.70;69.90
53978;DHT22;39886;47.984;-1.586;2023-04-30T00:33:49;19.70;69.90
53978;DHT22;39886;47.984;-1.586;2023-04-30T00:36:15;19.70;69.90
53978;DHT22;39886;47.984;-1.586;2023-04-30T00:38:40;19.70;70.00
53978;DHT22;39886;47.984;-1.586;2023-04-30T00:41:06;19.70;70.00
53978;DHT22;39886;47.984;-1.586;2023-04-30T00:43:32;19.70;70.00
53978;DHT22;39886;47.984;-1.586;2023-04-30T00:45:58;19.70;70.00
53978;DHT22;39886;47.984;-1.586;2023-04-30T00:48:24;19.60;70.00
53978;DHT22;39886;47.984;-1.586;2023-04-30T00:50:51;19.60;69.90
53978;DHT22;39886;47.984;-1.586;2023-04-30T00:53:16;19.60;70.00
53978;DHT22;39886;47.984;-1.586;2023-04-30T00:55:44;19.60;70.00
53978;DHT22;39886;47.984;-1.586;2023-04-30T00:58:10;19.60;70.00
53978;DHT22;39886;47.984;-1.586;2023-04-30T01:00:36;19.60;70.00
53978;DHT22;39886;47.984;-1.586;2023-04-30T01:03:03;19.60;70.00
53978;DHT22;39886;47.984;-1.586;2023-04-30T01:05:28;19.60;70.00
53978;DHT22;39886;47.984;-1.586;2023-04-30T01:07:55;19.60;70.00
53978;DHT22;39886;47.984;-1.586;2023-04-30T01:10:27;19.60;70.00
53978;DHT22;39886;47.984;-1.586;2023-04-30T01:13:27;19.60;70.10
53978;DHT22;39886;47.984;-1.586;2023-04-30T01:16:40;19.60;70.00
53978;DHT22;39886;47.984;-1.586;2023-04-30T01:18:59;19.60;70.10
53978;DHT22;39886;47.984;-1.586;2023-04-30T01:21:26;19.60;70.10
53978;DHT22;39886;47.984;-1.586;2023-04-30T01:29:30;19.60;70.20
53978;DHT22;39886;47.984;-1.586;2023-04-30T01:31:57;19.50;70.10
53978;DHT22;39886;47.984;-1.586;2023-04-30T01:34:22;19.60;70.20
53978;DHT22;39886;47.984;-1.586;2023-04-30T01:39:56;19.50;70.10
53978;DHT22;39886;47.984;-1.586;2023-04-30T01:42:40;19.50;70.10
53978;DHT22;39886;47.984;-1.586;2023-04-30T01:48:18;19.50;70.20
53978;DHT22;39886;47.984;-1.586;2023-04-30T01:50:55;19.50;70.20
53978;DHT22;39886;47.984;-1.586;2023-04-30T01:53:59;19.50;70.20
53978;DHT22;39886;47.984;-1.586;2023-04-30T01:56:22;19.50;70.20
53978;DHT22;39886;47.984;-1.586;2023-04-30T01:58:52;19.50;70.20
53978;DHT22;39886;47.984;-1.586;2023-04-30T02:01:29;19.50;70.20
53978;DHT22;39886;47.984;-1.586;2023-04-30T02:03:55;19.50;70.20
53978;DHT22;39886;47.984;-1.586;2023-04-30T02:06:25;19.40;70.10
53978;DHT22;39886;47.984;-1.586;2023-04-30T02:08:55;19.40;70.20
53978;DHT22;39886;47.984;-1.586;2023-04-30T02:11:21;19.40;70.20
53978;DHT22;39886;47.984;-1.586;2023-04-30T02:13:50;19.40;70.20
53978;DHT22;39886;47.984;-1.586;2023-04-30T02:16:16;19.50;70.20
53978;DHT22;39886;47.984;-1.586;2023-04-30T02:18:41;19.40;70.10
53978;DHT22;39886;47.984;-1.586;2023-04-30T02:21:07;19.40;70.10
53978;DHT22;39886;47.984;-1.586;2023-04-30T02:23:33;19.40;70.20
53978;DHT22;39886;47.984;-1.586;2023-04-30T02:25:58;19.40;70.20
53978;DHT22;39886;47.984;-1.586;2023-04-30T02:28:24;19.40;70.20
53978;DHT22;39886;47.984;-1.586;2023-04-30T02:30:50;19.40;70.10
53978;DHT22;39886;47.984;-1.586;2023-04-30T02:33:15;19.40;70.10
53978;DHT22;39886;47.984;-1.586;2023-04-30T02:35:41;19.40;70.20
53978;DHT22;39886;47.984;-1.586;2023-04-30T02:38:07;19.40;70.10
53978;DHT22;39886;47.984;-1.586;2023-04-30T02:40:33;19.40;70.20
53978;DHT22;39886;47.984;-1.586;2023-04-30T02:42:58;19.30;70.10
53978;DHT22;39886;47.984;-1.586;2023-04-30T02:45:25;19.30;70.10
53978;DHT22;39886;47.984;-1.586;2023-04-30T02:47:51;19.30;70.10
53978;DHT22;39886;47.984;-1.586;2023-04-30T02:50:17;19.30;70.10
53978;DHT22;39886;47.984;-1.586;2023-04-30T02:52:44;19.40;70.20
53978;DHT22;39886;47.984;-1.586;2023-04-30T02:55:10;19.30;70.10
53978;DHT22;39886;47.984;-1.586;2023-04-30T02:57:36;19.30;70.10
53978;DHT22;39886;47.984;-1.586;2023-04-30T03:00:02;19.40;70.20
53978;DHT22;39886;47.984;-1.586;2023-04-30T03:02:29;19.40;70.10
53978;DHT22;39886;47.984;-1.586;2023-04-30T03:04:54;19.40;70.20
53978;DHT22;39886;47.984;-1.586;2023-04-30T03:07:20;19.30;70.10
53978;DHT22;39886;47.984;-1.586;2023-04-30T03:09:46;19.30;70.10
53978;DHT22;39886;47.984;-1.586;2023-04-30T03:12:12;19.30;70.10
53978;DHT22;39886;47.984;-1.586;2023-04-30T03:14:39;19.30;70.10
53978;DHT22;39886;47.984;-1.586;2023-04-30T03:17:05;19.30;70.10
53978;DHT22;39886;47.984;-1.586;2023-04-30T03:19:31;19.30;70.20
53978;DHT22;39886;47.984;-1.586;2023-04-30T03:21:57;19.30;70.20
53978;DHT22;39886;47.984;-1.586;2023-04-30T03:24:23;19.30;70.20
53978;DHT22;39886;47.984;-1.586;2023-04-30T03:26:50;19.30;70.20
53978;DHT22;39886;47.984;-1.586;2023-04-30T03:29:16;19.30;70.20
53978;DHT22;39886;47.984;-1.586;2023-04-30T03:31:41;19.30;70.20
53978;DHT22;39886;47.984;-1.586;2023-04-30T03:34:08;19.30;70.20
53978;DHT22;39886;47.984;-1.586;2023-04-30T03:36:33;19.30;70.20
53978;DHT22;39886;47.984;-1.586;2023-04-30T03:38:59;19.30;70.20
53978;DHT22;39886;47.984;-1.586;2023-04-30T03:41:25;19.30;70.20
53978;DHT22;39886;47.984;-1.586;2023-04-30T03:43:51;19.30;70.20
53978;DHT22;39886;47.984;-1.586;2023-04-30T03:46:17;19.30;70.20
53978;DHT22;39886;47.984;-1.586;2023-04-30T03:48:43;19.30;70.20
53978;DHT22;39886;47.984;-1.586;2023-04-30T03:51:09;19.30;70.20
53978;DHT22;39886;47.984;-1.586;2023-04-30T03:53:35;19.20;70.10
53978;DHT22;39886;47.984;-1.586;2023-04-30T03:56:01;19.20;70.10
53978;DHT22;39886;47.984;-1.586;2023-04-30T03:58:28;19.20;70.10
53978;DHT22;39886;47.984;-1.586;2023-04-30T04:00:54;19.20;70.20
53978;DHT22;39886;47.984;-1.586;2023-04-30T04:03:20;19.20;70.20
53978;DHT22;39886;47.984;-1.586;2023-04-30T04:05:46;19.20;70.20
53978;DHT22;39886;47.984;-1.586;2023-04-30T04:08:12;19.20;70.20
53978;DHT22;39886;47.984;-1.586;2023-04-30T04:10:38;19.20;70.10
53978;DHT22;39886;47.984;-1.586;2023-04-30T04:13:04;19.20;70.20
53978;DHT22;39886;47.984;-1.586;2023-04-30T04:15:31;19.20;70.10
53978;DHT22;39886;47.984;-1.586;2023-04-30T04:17:57;19.20;70.10
53978;DHT22;39886;47.984;-1.586;2023-04-30T04:20:23;19.20;70.20
53978;DHT22;39886;47.984;-1.586;2023-04-30T04:22:48;19.20;70.10
53978;DHT22;39886;47.984;-1.586;2023-04-30T04:25:14;19.20;70.20
53978;DHT22;39886;47.984;-1.586;2023-04-30T04:27:40;19.20;70.20
53978;DHT22;39886;47.984;-1.586;2023-04-30T04:30:06;19.10;70.10
53978;DHT22;39886;47.984;-1.586;2023-04-30T04:32:32;19.20;70.20
53978;DHT22;39886;47.984;-1.586;2023-04-30T04:35:06;19.20;70.20
53978;DHT22;39886;47.984;-1.586;2023-04-30T04:37:33;19.20;70.10
53978;DHT22;39886;47.984;-1.586;2023-04-30T04:39:59;19.20;70.20
53978;DHT22;39886;47.984;-1.586;2023-04-30T04:42:25;19.10;70.10
53978;DHT22;39886;47.984;-1.586;2023-04-30T04:44:51;19.10;70.20
53978;DHT22;39886;47.984;-1.586;2023-04-30T04:47:17;19.10;70.10
53978;DHT22;39886;47.984;-1.586;2023-04-30T04:49:47;19.10;70.20
53978;DHT22;39886;47.984;-1.586;2023-04-30T04:52:13;19.10;70.20
53978;DHT22;39886;47.984;-1.586;2023-04-30T04:54:38;19.10;70.10
53978;DHT22;39886;47.984;-1.586;2023-04-30T04:57:04;19.10;70.10
53978;DHT22;39886;47.984;-1.586;2023-04-30T04:59:30;19.10;70.10
53978;DHT22;39886;47.984;-1.586;2023-04-30T05:01:55;19.10;70.10
53978;DHT22;39886;47.984;-1.586;2023-04-30T05:04:21;19.10;70.20
53978;DHT22;39886;47.984;-1.586;2023-04-30T05:06:47;19.10;70.10
53978;DHT22;39886;47.984;-1.586;2023-04-30T05:09:13;19.10;70.10
53978;DHT22;39886;47.984;-1.586;2023-04-30T05:11:38;19.10;70.10
53978;DHT22;39886;47.984;-1.586;2023-04-30T05:14:06;19.10;70.10
53978;DHT22;39886;47.984;-1.586;2023-04-30T05:16:32;19.10;70.20
53978;DHT22;39886;47.984;-1.586;2023-04-30T05:18:58;19.10;70.10
53978;DHT22;39886;47.984;-1.586;2023-04-30T05:21:23;19.10;70.10
53978;DHT22;39886;47.984;-1.586;2023-04-30T05:23:54;19.10;70.10
53978;DHT22;39886;47.984;-1.586;2023-04-30T05:26:19;19.10;70.10
53978;DHT22;39886;47.984;-1.586;2023-04-30T05:28:45;19.00;70.10
53978;DHT22;39886;47.984;-1.586;2023-04-30T05:31:11;19.10;70.10
53978;DHT22;39886;47.984;-1.586;2023-04-30T05:33:37;19.00;70.10
53978;DHT22;39886;47.984;-1.586;2023-04-30T05:36:02;19.10;70.10
53978;DHT22;39886;47.984;-1.586;2023-04-30T05:38:28;19.10;70.10
53978;DHT22;39886;47.984;-1.586;2023-04-30T05:40:54;19.10;70.10
53978;DHT22;39886;47.984;-1.586;2023-04-30T05:43:20;19.00;70.00
53978;DHT22;39886;47.984;-1.586;2023-04-30T05:45:45;19.10;70.00
53978;DHT22;39886;47.984;-1.586;2023-04-30T05:48:11;19.10;70.00
53978;DHT22;39886;47.984;-1.586;2023-04-30T05:50:37;19.10;70.00
53978;DHT22;39886;47.984;-1.586;2023-04-30T05:53:02;19.10;70.10
53978;DHT22;39886;47.984;-1.586;2023-04-30T05:55:28;19.10;70.10
53978;DHT22;39886;47.984;-1.586;2023-04-30T05:57:54;19.10;70.10
53978;DHT22;39886;47.984;-1.586;2023-04-30T06:00:20;19.10;70.10
53978;DHT22;39886;47.984;-1.586;2023-04-30T06:02:45;19.10;70.10
53978;DHT22;39886;47.984;-1.586;2023-04-30T06:05:11;19.10;70.10
53978;DHT22;39886;47.984;-1.586;2023-04-30T06:07:37;19.10;70.10
53978;DHT22;39886;47.984;-1.586;2023-04-30T06:10:03;19.00;70.10
53978;DHT22;39886;47.984;-1.586;2023-04-30T06:12:30;19.00;70.00
53978;DHT22;39886;47.984;-1.586;2023-04-30T06:14:55;19.10;70.10
53978;DHT22;39886;47.984;-1.586;2023-04-30T06:17:21;19.10;70.10
53978;DHT22;39886;47.984;-1.586;2023-04-30T06:19:47;19.00;70.00
53978;DHT22;39886;47.984;-1.586;2023-04-30T06:22:13;19.10;70.10
53978;DHT22;39886;47.984;-1.586;2023-04-30T06:24:39;19.10;70.00
53978;DHT22;39886;47.984;-1.586;2023-04-30T06:27:04;19.10;70.00
53978;DHT22;39886;47.984;-1.586;2023-04-30T06:29:30;19.10;70.00
53978;DHT22;39886;47.984;-1.586;2023-04-30T06:31:56;19.10;69.90
53978;DHT22;39886;47.984;-1.586;2023-04-30T06:34:21;19.10;69.90
53978;DHT22;39886;47.984;-1.586;2023-04-30T06:36:47;19.10;69.90
53978;DHT22;39886;47.984;-1.586;2023-04-30T06:39:14;19.10;69.80
53978;DHT22;39886;47.984;-1.586;2023-04-30T06:41:40;19.10;69.80
53978;DHT22;39886;47.984;-1.586;2023-04-30T06:44:07;19.10;69.80
53978;DHT22;39886;47.984;-1.586;2023-04-30T06:46:33;19.20;69.90
53978;DHT22;39886;47.984;-1.586;2023-04-30T06:48:59;19.20;69.90
53978;DHT22;39886;47.984;-1.586;2023-04-30T06:51:25;19.10;69.80
53978;DHT22;39886;47.984;-1.586;2023-04-30T06:53:51;19.20;69.90
53978;DHT22;39886;47.984;-1.586;2023-04-30T06:56:17;19.20;69.80
53978;DHT22;39886;47.984;-1.586;2023-04-30T06:58:43;19.20;69.80
53978;DHT22;39886;47.984;-1.586;2023-04-30T07:01:09;19.20;69.80
53978;DHT22;39886;47.984;-1.586;2023-04-30T07:03:35;19.20;69.80
53978;DHT22;39886;47.984;-1.586;2023-04-30T07:06:01;19.20;69.70
53978;DHT22;39886;47.984;-1.586;2023-04-30T07:08:27;19.20;69.70
53978;DHT22;39886;47.984;-1.586;2023-04-30T07:10:52;19.20;69.70
53978;DHT22;39886;47.984;-1.586;2023-04-30T07:13:18;19.30;69.80
53978;DHT22;39886;47.984;-1.586;2023-04-30T07:15:44;19.20;69.70
53978;DHT22;39886;47.984;-1.586;2023-04-30T07:18:10;19.20;69.70
53978;DHT22;39886;47.984;-1.586;2023-04-30T07:20:35;19.30;69.70
53978;DHT22;39886;47.984;-1.586;2023-04-30T07:23:01;19.30;69.70
53978;DHT22;39886;47.984;-1.586;2023-04-30T07:25:27;19.30;69.60
53978;DHT22;39886;47.984;-1.586;2023-04-30T07:27:54;19.30;69.60
53978;DHT22;39886;47.984;-1.586;2023-04-30T07:30:19;19.30;69.50
53978;DHT22;39886;47.984;-1.586;2023-04-30T07:32:46;19.30;69.50
53978;DHT22;39886;47.984;-1.586;2023-04-30T07:35:12;19.30;69.50
53978;DHT22;39886;47.984;-1.586;2023-04-30T07:37:39;19.30;69.50
53978;DHT22;39886;47.984;-1.586;2023-04-30T07:40:06;19.40;69.50
53978;DHT22;39886;47.984;-1.586;2023-04-30T07:42:40;19.40;69.40
53978;DHT22;39886;47.984;-1.586;2023-04-30T07:45:09;19.40;69.30
53978;DHT22;39886;47.984;-1.586;2023-04-30T07:47:37;19.40;69.20
53978;DHT22;39886;47.984;-1.586;2023-04-30T07:50:04;19.50;69.20
53978;DHT22;39886;47.984;-1.586;2023-04-30T07:52:29;19.50;69.20
53978;DHT22;39886;47.984;-1.586;2023-04-30T07:54:55;19.60;69.20
53978;DHT22;39886;47.984;-1.586;2023-04-30T07:57:21;19.50;69.10
53978;DHT22;39886;47.984;-1.586;2023-04-30T07:59:46;19.60;69.00
53978;DHT22;39886;47.984;-1.586;2023-04-30T08:02:12;19.60;69.00
53978;DHT22;39886;47.984;-1.586;2023-04-30T08:04:38;19.60;68.90
53978;DHT22;39886;47.984;-1.586;2023-04-30T08:07:04;19.60;68.90
53978;DHT22;39886;47.984;-1.586;2023-04-30T08:09:29;19.70;68.90
53978;DHT22;39886;47.984;-1.586;2023-04-30T08:11:55;19.70;68.70
53978;DHT22;39886;47.984;-1.586;2023-04-30T08:14:21;19.70;68.70
53978;DHT22;39886;47.984;-1.586;2023-04-30T08:16:47;19.80;68.70
53978;DHT22;39886;47.984;-1.586;2023-04-30T08:19:12;19.80;68.80
53978;DHT22;39886;47.984;-1.586;2023-04-30T08:21:38;19.80;68.70
53978;DHT22;39886;47.984;-1.586;2023-04-30T08:24:04;19.80;68.70
53978;DHT22;39886;47.984;-1.586;2023-04-30T08:26:30;19.90;68.60
53978;DHT22;39886;47.984;-1.586;2023-04-30T08:28:56;19.90;68.50
53978;DHT22;39886;47.984;-1.586;2023-04-30T08:31:21;19.90;68.40
53978;DHT22;39886;47.984;-1.586;2023-04-30T08:33:47;20.00;68.50
53978;DHT22;39886;47.984;-1.586;2023-04-30T08:36:13;20.00;68.50
53978;DHT22;39886;47.984;-1.586;2023-04-30T08:38:39;20.00;68.30
53978;DHT22;39886;47.984;-1.586;2023-04-30T08:41:12;20.10;68.30
53978;DHT22;39886;47.984;-1.586;2023-04-30T08:43:39;20.10;68.30
53978;DHT22;39886;47.984;-1.586;2023-04-30T08:46:05;20.10;68.30
53978;DHT22;39886;47.984;-1.586;2023-04-30T08:48:31;20.10;68.40
53978;DHT22;39886;47.984;-1.586;2023-04-30T08:51:01;20.10;68.20
53978;DHT22;39886;47.984;-1.586;2023-04-30T08:53:28;20.10;68.10
53978;DHT22;39886;47.984;-1.586;2023-04-30T08:55:54;20.20;68.10
53978;DHT22;39886;47.984;-1.586;2023-04-30T08:58:20;20.20;68.00
53978;DHT22;39886;47.984;-1.586;2023-04-30T09:00:45;20.20;67.90
53978;DHT22;39886;47.984;-1.586;2023-04-30T09:03:11;20.20;67.80
53978;DHT22;39886;47.984;-1.586;2023-04-30T09:05:37;20.20;67.80
53978;DHT22;39886;47.984;-1.586;2023-04-30T09:08:03;20.30;67.80
53978;DHT22;39886;47.984;-1.586;2023-04-30T09:10:31;20.30;67.80
53978;DHT22;39886;47.984;-1.586;2023-04-30T09:13:05;20.30;67.80
53978;DHT22;39886;47.984;-1.586;2023-04-30T09:15:31;20.30;67.70
53978;DHT22;39886;47.984;-1.586;2023-04-30T09:18:16;20.30;67.90
53978;DHT22;39886;47.984;-1.586;2023-04-30T09:20:56;20.30;67.60
53978;DHT22;39886;47.984;-1.586;2023-04-30T09:23:24;20.40;67.60
53978;DHT22;39886;47.984;-1.586;2023-04-30T09:25:50;20.40;67.50
53978;DHT22;39886;47.984;-1.586;2023-04-30T09:28:15;20.40;67.40
53978;DHT22;39886;47.984;-1.586;2023-04-30T09:30:41;20.50;67.40
53978;DHT22;39886;47.984;-1.586;2023-04-30T09:33:08;20.50;67.30
53978;DHT22;39886;47.984;-1.586;2023-04-30T09:35:35;20.50;67.30
53978;DHT22;39886;47.984;-1.586;2023-04-30T09:38:01;20.60;67.40
53978;DHT22;39886;47.984;-1.586;2023-04-30T09:40:38;20.60;67.50
53978;DHT22;39886;47.984;-1.586;2023-04-30T09:43:07;20.60;67.40
53978;DHT22;39886;47.984;-1.586;2023-04-30T09:45:44;20.60;67.40
53978;DHT22;39886;47.984;-1.586;2023-04-30T09:48:15;20.60;67.20
53978;DHT22;39886;47.984;-1.586;2023-04-30T09:50:41;20.60;67.30
53978;DHT22;39886;47.984;-1.586;2023-04-30T09:53:08;20.60;67.30
53978;DHT22;39886;47.984;-1.586;2023-04-30T09:55:35;20.60;67.30
53978;DHT22;39886;47.984;-1.586;2023-04-30T09:58:05;20.60;67.20
53978;DHT22;39886;47.984;-1.586;2023-04-30T10:00:35;20.70;67.30
53978;DHT22;39886;47.984;-1.586;2023-04-30T10:03:06;20.70;67.30
53978;DHT22;39886;47.984;-1.586;2023-04-30T10:05:37;20.70;67.20
53978;DHT22;39886;47.984;-1.586;2023-04-30T10:08:06;20.70;67.10
53978;DHT22;39886;47.984;-1.586;2023-04-30T10:10:35;20.70;67.00
53978;DHT22;39886;47.984;-1.586;2023-04-30T10:13:03;20.70;67.00
53978;DHT22;39886;47.984;-1.586;2023-04-30T10:15:42;20.70;67.00
53978;DHT22;39886;47.984;-1.586;2023-04-30T10:18:16;20.70;66.90
53978;DHT22;39886;47.984;-1.586;2023-04-30T10:20:46;20.70;66.90
53978;DHT22;39886;47.984;-1.586;2023-04-30T10:23:13;20.70;66.90
53978;DHT22;39886;47.984;-1.586;2023-04-30T10:25:40;20.70;66.80
53978;DHT22;39886;47.984;-1.586;2023-04-30T10:28:07;20.70;66.80
53978;DHT22;39886;47.984;-1.586;2023-04-30T10:30:34;20.70;66.80
53978;DHT22;39886;47.984;-1.586;2023-04-30T10:33:28;20.80;66.90
53978;DHT22;39886;47.984;-1.586;2023-04-30T10:36:03;20.70;66.80
53978;DHT22;39886;47.984;-1.586;2023-04-30T10:38:30;20.70;66.80
53978;DHT22;39886;47.984;-1.586;2023-04-30T10:40:58;20.70;66.90
53978;DHT22;39886;47.984;-1.586;2023-04-30T10:43:26;20.70;66.90
53978;DHT22;39886;47.984;-1.586;2023-04-30T10:45:51;20.70;66.90
53978;DHT22;39886;47.984;-1.586;2023-04-30T10:48:21;20.70;66.90
53978;DHT22;39886;47.984;-1.586;2023-04-30T10:50:54;20.80;66.90
53978;DHT22;39886;47.984;-1.586;2023-04-30T10:53:21;20.80;66.90
53978;DHT22;39886;47.984;-1.586;2023-04-30T10:55:57;20.70;66.80
53978;DHT22;39886;47.984;-1.586;2023-04-30T10:58:31;20.80;66.90
53978;DHT22;39886;47.984;-1.586;2023-04-30T11:01:09;20.80;66.90
53978;DHT22;39886;47.984;-1.586;2023-04-30T11:03:38;20.80;66.80
53978;DHT22;39886;47.984;-1.586;2023-04-30T11:06:14;20.80;66.80
53978;DHT22;39886;47.984;-1.586;2023-04-30T11:08:43;20.80;66.70
53978;DHT22;39886;47.984;-1.586;2023-04-30T11:11:18;20.80;66.70
53978;DHT22;39886;47.984;-1.586;2023-04-30T11:14:00;20.90;66.70
53978;DHT22;39886;47.984;-1.586;2023-04-30T11:16:29;20.90;66.70
53978;DHT22;39886;47.984;-1.586;2023-04-30T11:19:13;20.90;66.60
53978;DHT22;39886;47.984;-1.586;2023-04-30T11:21:40;20.90;66.60
53978;DHT22;39886;47.984;-1.586;2023-04-30T11:24:06;20.90;66.70
53978;DHT22;39886;47.984;-1.586;2023-04-30T11:27:04;20.90;66.60
53978;DHT22;39886;47.984;-1.586;2023-04-30T11:29:31;20.90;66.60
53978;DHT22;39886;47.984;-1.586;2023-04-30T11:31:59;20.90;66.60
53978;DHT22;39886;47.984;-1.586;2023-04-30T11:34:25;20.90;66.60
53978;DHT22;39886;47.984;-1.586;2023-04-30T11:36:54;21.00;66.50
53978;DHT22;39886;47.984;-1.586;2023-04-30T11:39:27;21.00;66.50
53978;DHT22;39886;47.984;-1.586;2023-04-30T11:41:54;21.00;66.50
53978;DHT22;39886;47.984;-1.586;2023-04-30T11:44:26;21.00;66.40
53978;DHT22;39886;47.984;-1.586;2023-04-30T11:46:52;21.00;66.50
53978;DHT22;39886;47.984;-1.586;2023-04-30T11:49:21;21.00;66.40
53978;DHT22;39886;47.984;-1.586;2023-04-30T11:51:48;21.00;66.40
53978;DHT22;39886;47.984;-1.586;2023-04-30T11:54:15;21.00;66.40
53978;DHT22;39886;47.984;-1.586;2023-04-30T11:56:45;21.00;66.40
53978;DHT22;39886;47.984;-1.586;2023-04-30T11:59:15;21.00;66.40
53978;DHT22;39886;47.984;-1.586;2023-04-30T12:01:41;21.00;66.40
53978;DHT22;39886;47.984;-1.586;2023-04-30T12:04:07;21.00;66.50
53978;DHT22;39886;47.984;-1.586;2023-04-30T12:06:35;21.10;66.50
53978;DHT22;39886;47.984;-1.586;2023-04-30T12:09:03;21.10;66.50
53978;DHT22;39886;47.984;-1.586;2023-04-30T12:11:32;21.00;66.50
53978;DHT22;39886;47.984;-1.586;2023-04-30T12:14:03;21.00;66.50
53978;DHT22;39886;47.984;-1.586;2023-04-30T12:16:47;21.00;66.50
53978;DHT22;39886;47.984;-1.586;2023-04-30T12:19:17;21.00;66.50
53978;DHT22;39886;47.984;-1.586;2023-04-30T12:21:44;21.00;66.60
53978;DHT22;39886;47.984;-1.586;2023-04-30T12:24:14;21.00;66.50
53978;DHT22;39886;47.984;-1.586;2023-04-30T12:26:41;21.00;66.60
53978;DHT22;39886;47.984;-1.586;2023-04-30T12:29:13;21.10;66.60
53978;DHT22;39886;47.984;-1.586;2023-04-30T12:31:40;21.00;66.50
53978;DHT22;39886;47.984;-1.586;2023-04-30T12:34:08;21.10;66.60
53978;DHT22;39886;47.984;-1.586;2023-04-30T12:36:35;21.00;66.50
53978;DHT22;39886;47.984;-1.586;2023-04-30T12:39:07;21.10;66.60
53978;DHT22;39886;47.984;-1.586;2023-04-30T12:41:43;21.10;66.60
53978;DHT22;39886;47.984;-1.586;2023-04-30T12:46:45;21.10;66.60
53978;DHT22;39886;47.984;-1.586;2023-04-30T12:49:11;21.10;66.60
53978;DHT22;39886;47.984;-1.586;2023-04-30T12:51:38;21.10;66.60
53978;DHT22;39886;47.984;-1.586;2023-04-30T12:54:06;21.10;66.60
53978;DHT22;39886;47.984;-1.586;2023-04-30T12:56:32;21.10;66.60
53978;DHT22;39886;47.984;-1.586;2023-04-30T12:58:58;21.10;66.60
53978;DHT22;39886;47.984;-1.586;2023-04-30T13:01:24;21.10;66.60
53978;DHT22;39886;47.984;-1.586;2023-04-30T13:03:51;21.10;66.50
53978;DHT22;39886;47.984;-1.586;2023-04-30T13:06:17;21.10;66.50
53978;DHT22;39886;47.984;-1.586;2023-04-30T13:08:44;21.10;66.50
53978;DHT22;39886;47.984;-1.586;2023-04-30T13:11:09;21.20;66.50
53978;DHT22;39886;47.984;-1.586;2023-04-30T13:13:35;21.20;66.50
53978;DHT22;39886;47.984;-1.586;2023-04-30T13:16:01;21.20;66.40
53978;DHT22;39886;47.984;-1.586;2023-04-30T13:18:31;21.20;66.40
53978;DHT22;39886;47.984;-1.586;2023-04-30T13:20:57;21.20;66.40
53978;DHT22;39886;47.984;-1.586;2023-04-30T13:23:22;21.20;66.30
53978;DHT22;39886;47.984;-1.586;2023-04-30T13:25:48;21.30;66.30
53978;DHT22;39886;47.984;-1.586;2023-04-30T13:28:14;21.30;66.30
53978;DHT22;39886;47.984;-1.586;2023-04-30T13:30:40;21.30;66.30
53978;DHT22;39886;47.984;-1.586;2023-04-30T13:33:06;21.20;66.20
53978;DHT22;39886;47.984;-1.586;2023-04-30T13:35:32;21.30;66.20
53978;DHT22;39886;47.984;-1.586;2023-04-30T13:38:00;21.30;66.20
53978;DHT22;39886;47.984;-1.586;2023-04-30T13:40:26;21.30;66.20
53978;DHT22;39886;47.984;-1.586;2023-04-30T13:42:52;21.30;66.10
53978;DHT22;39886;47.984;-1.586;2023-04-30T13:45:18;21.40;66.10
53978;DHT22;39886;47.984;-1.586;2023-04-30T13:47:44;21.40;66.10
53978;DHT22;39886;47.984;-1.586;2023-04-30T13:50:10;21.40;66.10
53978;DHT22;39886;47.984;-1.586;2023-04-30T13:52:36;21.40;66.10
53978;DHT22;39886;47.984;-1.586;2023-04-30T13:55:01;21.40;66.20
53978;DHT22;39886;47.984;-1.586;2023-04-30T13:57:29;21.40;66.10
53978;DHT22;39886;47.984;-1.586;2023-04-30T13:59:57;21.40;66.00
53978;DHT22;39886;47.984;-1.586;2023-04-30T14:02:24;21.40;66.00
53978;DHT22;39886;47.984;-1.586;2023-04-30T14:04:51;21.50;66.00
53978;DHT22;39886;47.984;-1.586;2023-04-30T14:07:17;21.50;65.80
53978;DHT22;39886;47.984;-1.586;2023-04-30T14:09:43;21.50;65.90
53978;DHT22;39886;47.984;-1.586;2023-04-30T14:12:08;21.40;65.90
53978;DHT22;39886;47.984;-1.586;2023-04-30T14:14:34;21.50;66.70
53978;DHT22;39886;47.984;-1.586;2023-04-30T14:17:00;21.40;66.00
53978;DHT22;39886;47.984;-1.586;2023-04-30T14:19:26;21.50;66.00
53978;DHT22;39886;47.984;-1.586;2023-04-30T14:21:52;21.50;65.90
53978;DHT22;39886;47.984;-1.586;2023-04-30T14:24:18;21.50;66.00
53978;DHT22;39886;47.984;-1.586;2023-04-30T14:26:44;21.50;66.00
53978;DHT22;39886;47.984;-1.586;2023-04-30T14:29:10;21.50;66.00
53978;DHT22;39886;47.984;-1.586;2023-04-30T14:31:36;21.50;66.00
53978;DHT22;39886;47.984;-1.586;2023-04-30T14:34:02;21.50;66.00
53978;DHT22;39886;47.984;-1.586;2023-04-30T14:36:28;21.50;66.00
53978;DHT22;39886;47.984;-1.586;2023-04-30T14:38:53;21.50;66.00
53978;DHT22;39886;47.984;-1.586;2023-04-30T14:41:19;21.50;65.90
53978;DHT22;39886;47.984;-1.586;2023-04-30T14:43:45;21.50;66.00
53978;DHT22;39886;47.984;-1.586;2023-04-30T14:46:11;21.50;66.00
53978;DHT22;39886;47.984;-1.586;2023-04-30T14:48:37;21.50;66.00
53978;DHT22;39886;47.984;-1.586;2023-04-30T14:51:03;21.50;66.00
53978;DHT22;39886;47.984;-1.586;2023-04-30T14:53:29;21.50;66.00
53978;DHT22;39886;47.984;-1.586;2023-04-30T14:55:55;21.50;66.00
53978;DHT22;39886;47.984;-1.586;2023-04-30T14:58:20;21.50;66.20
53978;DHT22;39886;47.984;-1.586;2023-04-30T15:00:47;21.50;66.20
53978;DHT22;39886;47.984;-1.586;2023-04-30T15:03:13;21.40;66.20
53978;DHT22;39886;47.984;-1.586;2023-04-30T15:05:42;21.50;66.20
53978;DHT22;39886;47.984;-1.586;2023-04-30T15:08:07;21.50;66.20
53978;DHT22;39886;47.984;-1.586;2023-04-30T15:10:33;21.50;66.10
53978;DHT22;39886;47.984;-1.586;2023-04-30T15:13:02;21.50;66.10
53978;DHT22;39886;47.984;-1.586;2023-04-30T15:15:28;21.50;66.10
53978;DHT22;39886;47.984;-1.586;2023-04-30T15:17:56;21.50;66.10
53978;DHT22;39886;47.984;-1.586;2023-04-30T15:20:22;21.50;66.20
53978;DHT22;39886;47.984;-1.586;2023-04-30T15:22:49;21.50;66.20
53978;DHT22;39886;47.984;-1.586;2023-04-30T15:25:15;21.50;66.20
53978;DHT22;39886;47.984;-1.586;2023-04-30T15:27:42;21.40;66.20
53978;DHT22;39886;47.984;-1.586;2023-04-30T15:30:08;21.40;66.30
53978;DHT22;39886;47.984;-1.586;2023-04-30T15:32:34;21.40;66.40